createdAt,value
2022-08-14T00:00:15.923Z,990.94
2022-08-14T00:01:15.909Z,990.91
2022-08-14T00:02:15.938Z,990.93
2022-08-14T00:03:15.893Z,990.92
2022-08-14T00:04:31.861Z,990.88
2022-08-14T00:05:15.865Z,990.87
2022-08-14T00:06:28.673Z,990.84
2022-08-14T00:07:15.844Z,990.84
2022-08-14T00:08:15.836Z,990.86
2022-08-14T00:09:15.823Z,990.84
2022-08-14T00:10:52.900Z,990.86
2022-08-14T00:11:15.799Z,990.83
2022-08-14T00:12:23.705Z,990.78
2022-08-14T00:13:15.779Z,990.84
2022-08-14T00:14:17.131Z,990.77
2022-08-14T00:15:15.756Z,990.74
2022-08-14T00:16:41.804Z,990.73
2022-08-14T00:17:15.734Z,990.68
2022-08-14T00:18:30.408Z,990.71
2022-08-14T00:19:18.557Z,990.71
2022-08-14T00:20:15.711Z,990.69
2022-08-14T00:21:15.691Z,990.68
2022-08-14T00:22:15.678Z,990.63
2022-08-14T00:23:16.572Z,990.63
2022-08-14T00:24:28.128Z,990.60
2022-08-14T00:25:15.654Z,990.61
2022-08-14T00:26:21.688Z,990.61
2022-08-14T00:27:15.624Z,990.58
2022-08-14T00:28:17.872Z,990.61
2022-08-14T00:29:15.603Z,990.60
2022-08-14T00:30:17.335Z,990.54
2022-08-14T00:31:15.579Z,990.56
2022-08-14T00:32:55.889Z,990.52
2022-08-14T00:33:16.410Z,990.54
2022-08-14T00:34:36.400Z,990.51
2022-08-14T00:35:15.536Z,990.51
2022-08-14T00:36:35.889Z,990.48
2022-08-14T00:37:15.510Z,990.47
2022-08-14T00:38:15.501Z,990.50
2022-08-14T00:39:18.125Z,990.48
2022-08-14T00:40:27.341Z,990.48
2022-08-14T00:41:15.465Z,990.48
2022-08-14T00:42:21.355Z,990.49
2022-08-14T00:43:15.446Z,990.48
2022-08-14T00:44:21.333Z,990.45
2022-08-14T00:45:15.424Z,990.45
2022-08-14T00:46:32.871Z,990.45
2022-08-14T00:47:15.400Z,990.44
2022-08-14T00:48:15.390Z,990.43
2022-08-14T00:49:15.383Z,990.39
2022-08-14T00:50:17.793Z,990.38
2022-08-14T00:51:15.354Z,990.37
2022-08-14T00:52:17.770Z,990.32
2022-08-14T00:53:15.333Z,990.31
2022-08-14T00:54:21.280Z,990.34
2022-08-14T00:55:15.316Z,990.33
2022-08-14T00:56:15.557Z,990.31
2022-08-14T00:57:15.286Z,990.35
2022-08-14T00:58:15.277Z,990.32
2022-08-14T00:59:16.172Z,990.27
2022-08-14T01:00:34.112Z,990.26
2022-08-14T01:01:15.240Z,990.29
2022-08-14T01:02:15.230Z,990.25
2022-08-14T01:03:15.219Z,990.31
2022-08-14T01:04:50.863Z,990.30
2022-08-14T01:05:15.197Z,990.30
2022-08-14T01:06:15.187Z,990.32
2022-08-14T01:07:15.174Z,990.32
2022-08-14T01:08:50.631Z,990.27
2022-08-14T01:09:15.152Z,990.24
2022-08-14T01:10:15.140Z,990.19
2022-08-14T01:11:15.128Z,990.18
2022-08-14T01:12:15.120Z,990.18
2022-08-14T01:13:15.108Z,990.15
2022-08-14T01:14:25.266Z,990.21
2022-08-14T01:15:15.084Z,990.17
2022-08-14T01:16:15.133Z,990.22
2022-08-14T01:17:15.060Z,990.21
2022-08-14T01:18:15.051Z,990.15
2022-08-14T01:19:15.040Z,990.20
2022-08-14T01:20:27.775Z,990.14
2022-08-14T01:21:15.015Z,990.11
2022-08-14T01:22:18.943Z,990.13
2022-08-14T01:23:16.349Z,990.15
2022-08-14T01:24:14.983Z,990.11
2022-08-14T01:25:14.970Z,990.11
2022-08-14T01:26:14.958Z,990.10
2022-08-14T01:27:14.948Z,990.04
2022-08-14T01:28:34.340Z,990.06
2022-08-14T01:29:16.114Z,990.02
2022-08-14T01:30:16.928Z,990.02
2022-08-14T01:31:14.919Z,990.04
2022-08-14T01:32:15.720Z,989.99
2022-08-14T01:33:14.879Z,989.99
2022-08-14T01:35:18.200Z,990.00
2022-08-14T01:35:19.430Z,989.97
2022-08-14T01:36:21.055Z,989.97
2022-08-14T01:37:16.499Z,989.96
2022-08-14T01:38:14.823Z,989.99
2022-08-14T01:39:15.829Z,989.94
2022-08-14T01:40:15.526Z,989.98
2022-08-14T01:41:15.931Z,989.99
2022-08-14T01:42:31.216Z,989.98
2022-08-14T01:43:14.857Z,990.00
2022-08-14T01:44:31.953Z,989.97
2022-08-14T01:45:17.801Z,989.96
2022-08-14T01:46:24.320Z,989.92
2022-08-14T01:47:21.724Z,989.95
2022-08-14T01:48:14.707Z,989.95
2022-08-14T01:49:14.696Z,989.90
2022-08-14T01:50:14.685Z,989.87
2022-08-14T01:51:19.321Z,989.90
2022-08-14T01:52:34.080Z,989.92
2022-08-14T01:53:14.659Z,989.90
2022-08-14T01:54:14.635Z,989.88
2022-08-14T01:55:14.639Z,989.94
2022-08-14T01:56:18.729Z,989.95
2022-08-14T01:57:14.599Z,989.93
2022-08-14T01:58:20.377Z,989.90
2022-08-14T01:59:18.469Z,989.85
2022-08-14T02:00:14.568Z,989.90
2022-08-14T02:01:14.581Z,989.87
2022-08-14T02:02:18.932Z,989.81
2022-08-14T02:03:14.531Z,989.79
2022-08-14T02:04:20.742Z,989.77
2022-08-14T02:05:14.509Z,989.76
2022-08-14T02:06:33.002Z,989.78
2022-08-14T02:07:15.698Z,989.71
2022-08-14T02:08:16.126Z,989.71
2022-08-14T02:09:22.311Z,989.66
2022-08-14T02:10:15.656Z,989.61
2022-08-14T02:11:14.438Z,989.57
2022-08-14T02:12:19.746Z,989.57
2022-08-14T02:13:16.206Z,989.54
2022-08-14T02:14:14.406Z,989.51
2022-08-14T02:15:15.294Z,989.52
2022-08-14T02:16:22.277Z,989.54
2022-08-14T02:17:14.370Z,989.47
2022-08-14T02:18:15.259Z,989.43
2022-08-14T02:19:14.341Z,989.43
2022-08-14T02:20:14.345Z,989.37
2022-08-14T02:21:14.347Z,989.41
2022-08-14T02:22:14.309Z,989.33
2022-08-14T02:23:14.295Z,989.39
2022-08-14T02:24:39.671Z,989.27
2022-08-14T02:25:14.268Z,989.29
2022-08-14T02:26:24.812Z,989.30
2022-08-14T02:28:23.807Z,989.27
2022-08-14T02:28:25.302Z,989.25
2022-08-14T02:29:14.224Z,989.23
2022-08-14T02:30:14.210Z,989.20
2022-08-14T02:31:14.957Z,989.19
2022-08-14T02:32:20.084Z,989.17
2022-08-14T02:33:14.254Z,989.17
2022-08-14T02:34:22.173Z,989.17
2022-08-14T02:35:14.151Z,989.20
2022-08-14T02:37:02.921Z,989.11
2022-08-14T02:37:14.137Z,989.15
2022-08-14T02:38:30.253Z,989.11
2022-08-14T02:39:14.102Z,989.09
2022-08-14T02:40:14.091Z,989.05
2022-08-14T02:41:14.078Z,989.04
2022-08-14T02:42:14.073Z,989.01
2022-08-14T02:43:14.061Z,988.99
2022-08-14T02:44:14.050Z,988.99
2022-08-14T02:45:14.042Z,989.02
2022-08-14T02:46:14.020Z,989.02
2022-08-14T02:47:14.714Z,989.03
2022-08-14T02:49:04.443Z,989.01
2022-08-14T02:49:13.985Z,989.03
2022-08-14T02:50:13.971Z,989.02
2022-08-14T02:51:13.962Z,989.02
2022-08-14T02:52:55.876Z,989.06
2022-08-14T02:53:13.969Z,989.03
2022-08-14T02:54:19.697Z,989.00
2022-08-14T02:55:15.571Z,989.03
2022-08-14T02:56:30.867Z,989.05
2022-08-14T02:57:15.890Z,989.04
2022-08-14T02:58:29.141Z,989.08
2022-08-14T02:59:13.870Z,989.12
2022-08-14T03:00:17.918Z,989.14
2022-08-14T03:01:13.886Z,989.18
2022-08-14T03:02:24.585Z,989.15
2022-08-14T03:03:13.813Z,989.24
2022-08-14T03:04:13.812Z,989.17
2022-08-14T03:05:13.787Z,989.16
2022-08-14T03:06:13.777Z,989.16
2022-08-14T03:07:13.769Z,989.16
2022-08-14T03:08:15.311Z,989.10
2022-08-14T03:09:13.740Z,989.14
2022-08-14T03:10:28.068Z,989.11
2022-08-14T03:11:13.717Z,989.12
2022-08-14T03:12:13.711Z,989.09
2022-08-14T03:13:19.258Z,989.09
2022-08-14T03:14:15.524Z,989.05
2022-08-14T03:15:14.311Z,989.05
2022-08-14T03:16:20.045Z,989.06
2022-08-14T03:17:13.644Z,989.06
2022-08-14T03:18:13.634Z,989.01
2022-08-14T03:19:13.618Z,988.98
2022-08-14T03:20:13.614Z,988.99
2022-08-14T03:21:13.595Z,988.92
2022-08-14T03:22:17.628Z,988.92
2022-08-14T03:23:13.584Z,988.93
2022-08-14T03:24:21.645Z,988.90
2022-08-14T03:25:13.547Z,988.93
2022-08-14T03:26:18.021Z,988.86
2022-08-14T03:27:13.524Z,988.89
2022-08-14T03:28:14.947Z,988.88
2022-08-14T03:29:14.001Z,988.90
2022-08-14T03:30:14.448Z,988.92
2022-08-14T03:31:13.621Z,988.96
2022-08-14T03:32:13.462Z,988.95
2022-08-14T03:33:13.447Z,988.93
2022-08-14T03:34:24.316Z,988.95
2022-08-14T03:35:13.423Z,988.99
2022-08-14T03:37:37.770Z,988.97
2022-08-14T03:37:38.705Z,988.95
2022-08-14T03:39:11.854Z,988.97
2022-08-14T03:39:22.533Z,988.98
2022-08-14T03:40:18.313Z,988.98
2022-08-14T03:41:13.349Z,989.00
2022-08-14T03:42:19.199Z,988.98
2022-08-14T03:43:13.319Z,988.98
2022-08-14T03:45:18.956Z,989.01
2022-08-14T03:45:25.324Z,989.03
2022-08-14T03:46:53.060Z,989.04
2022-08-14T03:47:15.511Z,988.99
2022-08-14T03:48:30.197Z,989.01
2022-08-14T03:49:13.474Z,988.96
2022-08-14T03:50:13.234Z,988.95
2022-08-14T03:51:13.223Z,988.96
2022-08-14T03:52:18.174Z,988.91
2022-08-14T03:53:13.199Z,988.95
2022-08-14T03:54:15.691Z,988.90
2022-08-14T03:55:13.174Z,988.94
2022-08-14T03:56:13.161Z,988.89
2022-08-14T03:57:13.148Z,988.89
2022-08-14T03:58:13.135Z,988.83
2022-08-14T03:59:17.622Z,988.83
2022-08-14T04:00:13.382Z,988.79
2022-08-14T04:01:13.167Z,988.83
2022-08-14T04:02:33.377Z,988.83
2022-08-14T04:03:16.718Z,988.78
2022-08-14T04:04:13.060Z,988.79
2022-08-14T04:05:16.498Z,988.78
2022-08-14T04:06:13.035Z,988.78
2022-08-14T04:07:13.024Z,988.73
2022-08-14T04:08:29.370Z,988.72
2022-08-14T04:09:12.995Z,988.72
2022-08-14T04:10:12.995Z,988.68
2022-08-14T04:11:12.974Z,988.66
2022-08-14T04:12:13.456Z,988.69
2022-08-14T04:13:12.951Z,988.69
2022-08-14T04:14:15.303Z,988.63
2022-08-14T04:15:12.922Z,988.66
2022-08-14T04:16:13.103Z,988.67
2022-08-14T04:17:12.894Z,988.65
2022-08-14T04:18:12.883Z,988.67
2022-08-14T04:19:12.870Z,988.61
2022-08-14T04:20:12.859Z,988.66
2022-08-14T04:21:12.851Z,988.60
2022-08-14T04:22:12.832Z,988.61
2022-08-14T04:23:23.337Z,988.62
2022-08-14T04:24:12.807Z,988.64
2022-08-14T04:25:12.792Z,988.65
2022-08-14T04:26:14.861Z,988.66
2022-08-14T04:27:12.773Z,988.65
2022-08-14T04:29:06.786Z,988.66
2022-08-14T04:29:15.271Z,988.64
2022-08-14T04:30:12.732Z,988.65
2022-08-14T04:31:12.724Z,988.64
2022-08-14T04:32:57.475Z,988.64
2022-08-14T04:33:18.581Z,988.64
2022-08-14T04:34:20.969Z,988.64
2022-08-14T04:35:12.667Z,988.69
2022-08-14T04:36:15.959Z,988.67
2022-08-14T04:37:12.642Z,988.68
2022-08-14T04:38:37.268Z,988.68
2022-08-14T04:39:12.623Z,988.67
2022-08-14T04:40:12.608Z,988.69
2022-08-14T04:41:12.591Z,988.66
2022-08-14T04:42:14.134Z,988.64
2022-08-14T04:43:14.276Z,988.70
2022-08-14T04:44:13.425Z,988.67
2022-08-14T04:45:12.540Z,988.66
2022-08-14T04:46:55.392Z,988.70
2022-08-14T04:47:12.520Z,988.67
2022-08-14T04:48:12.873Z,988.64
2022-08-14T04:49:15.174Z,988.65
2022-08-14T04:50:12.496Z,988.63
2022-08-14T04:51:12.467Z,988.61
2022-08-14T04:52:18.936Z,988.62
2022-08-14T04:53:12.443Z,988.62
2022-08-14T04:54:12.433Z,988.60
2022-08-14T04:55:12.415Z,988.58
2022-08-14T04:56:31.412Z,988.56
2022-08-14T04:57:12.392Z,988.56
2022-08-14T04:58:21.915Z,988.56
2022-08-14T04:59:12.369Z,988.60
2022-08-14T05:00:16.201Z,988.58
2022-08-14T05:01:12.938Z,988.59
2022-08-14T05:02:12.379Z,988.60
2022-08-14T05:03:12.334Z,988.65
2022-08-14T05:04:14.732Z,988.61
2022-08-14T05:05:12.290Z,988.60
2022-08-14T05:06:38.404Z,988.58
2022-08-14T05:07:12.271Z,988.59
2022-08-14T05:08:32.414Z,988.57
2022-08-14T05:09:13.996Z,988.55
2022-08-14T05:10:12.751Z,988.56
2022-08-14T05:11:13.380Z,988.56
2022-08-14T05:13:13.065Z,988.56
2022-08-14T05:13:15.517Z,988.63
2022-08-14T05:14:32.979Z,988.63
2022-08-14T05:15:12.169Z,988.64
2022-08-14T05:16:12.152Z,988.68
2022-08-14T05:17:12.172Z,988.70
2022-08-14T05:18:37.007Z,988.72
2022-08-14T05:19:24.955Z,988.70
2022-08-14T05:21:54.630Z,988.73
2022-08-14T05:21:56.576Z,988.69
2022-08-14T05:22:17.033Z,988.66
2022-08-14T05:23:12.065Z,988.66
2022-08-14T05:24:17.708Z,988.62
2022-08-14T05:25:12.055Z,988.65
2022-08-14T05:26:12.030Z,988.66
2022-08-14T05:27:12.030Z,988.67
2022-08-14T05:28:14.112Z,988.69
2022-08-14T05:29:12.017Z,988.69
2022-08-14T05:30:11.983Z,988.70
2022-08-14T05:31:11.967Z,988.71
2022-08-14T05:32:11.953Z,988.71
2022-08-14T05:33:11.944Z,988.71
2022-08-14T05:34:11.934Z,988.68
2022-08-14T05:35:11.918Z,988.72
2022-08-14T05:36:16.660Z,988.70
2022-08-14T05:37:11.894Z,988.65
2022-08-14T05:38:22.300Z,988.66
2022-08-14T05:39:11.870Z,988.66
2022-08-14T05:40:11.857Z,988.69
2022-08-14T05:41:11.845Z,988.65
2022-08-14T05:42:22.260Z,988.64
2022-08-14T05:43:11.823Z,988.65
2022-08-14T05:44:11.806Z,988.66
2022-08-14T05:45:13.657Z,988.66
2022-08-14T05:46:11.782Z,988.69
2022-08-14T05:47:11.774Z,988.69
2022-08-14T05:48:11.759Z,988.67
2022-08-14T05:49:11.748Z,988.67
2022-08-14T05:50:18.511Z,988.66
2022-08-14T05:51:11.725Z,988.65
2022-08-14T05:52:11.712Z,988.62
2022-08-14T05:53:11.698Z,988.64
2022-08-14T05:54:13.882Z,988.64
2022-08-14T05:55:11.676Z,988.62
2022-08-14T05:56:11.671Z,988.63
2022-08-14T05:57:11.652Z,988.58
2022-08-14T05:58:11.639Z,988.61
2022-08-14T05:59:11.632Z,988.59
2022-08-14T06:00:11.616Z,988.57
2022-08-14T06:01:11.651Z,988.60
2022-08-14T06:02:11.590Z,988.59
2022-08-14T06:03:11.583Z,988.62
2022-08-14T06:04:11.572Z,988.56
2022-08-14T06:05:11.558Z,988.59
2022-08-14T06:06:11.550Z,988.57
2022-08-14T06:07:11.539Z,988.56
2022-08-14T06:08:31.087Z,988.60
2022-08-14T06:09:11.511Z,988.59
2022-08-14T06:10:11.503Z,988.59
2022-08-14T06:11:14.886Z,988.60
2022-08-14T06:12:11.944Z,988.61
2022-08-14T06:13:11.466Z,988.60
2022-08-14T06:14:21.177Z,988.64
2022-08-14T06:15:11.443Z,988.65
2022-08-14T06:16:11.433Z,988.62
2022-08-14T06:17:11.419Z,988.63
2022-08-14T06:18:11.411Z,988.62
2022-08-14T06:19:11.663Z,988.65
2022-08-14T06:20:11.395Z,988.64
2022-08-14T06:21:12.958Z,988.64
2022-08-14T06:22:11.365Z,988.67
2022-08-14T06:23:11.382Z,988.65
2022-08-14T06:24:18.325Z,988.65
2022-08-14T06:25:11.329Z,988.67
2022-08-14T06:26:11.322Z,988.75
2022-08-14T06:27:11.312Z,988.72
2022-08-14T06:28:23.380Z,988.72
2022-08-14T06:29:11.285Z,988.71
2022-08-14T06:30:11.320Z,988.75
2022-08-14T06:31:11.263Z,988.72
2022-08-14T06:32:37.362Z,988.75
2022-08-14T06:33:11.319Z,988.77
2022-08-14T06:35:11.479Z,988.74
2022-08-14T06:35:13.005Z,988.76
2022-08-14T06:36:11.474Z,988.71
2022-08-14T06:37:11.201Z,988.68
2022-08-14T06:38:14.227Z,988.67
2022-08-14T06:39:11.177Z,988.66
2022-08-14T06:40:25.696Z,988.67
2022-08-14T06:41:11.154Z,988.65
2022-08-14T06:42:25.565Z,988.69
2022-08-14T06:43:11.135Z,988.64
2022-08-14T06:44:11.121Z,988.72
2022-08-14T06:45:11.118Z,988.75
2022-08-14T06:46:23.114Z,988.71
2022-08-14T06:47:11.100Z,988.73
2022-08-14T06:48:12.928Z,988.67
2022-08-14T06:49:11.074Z,988.66
2022-08-14T06:50:11.061Z,988.62
2022-08-14T06:51:11.051Z,988.61
2022-08-14T06:52:11.041Z,988.61
2022-08-14T06:53:11.028Z,988.55
2022-08-14T06:54:11.016Z,988.54
2022-08-14T06:55:11.007Z,988.52
2022-08-14T06:56:10.997Z,988.50
2022-08-14T06:57:10.988Z,988.52
2022-08-14T06:58:24.726Z,988.45
2022-08-14T06:59:16.719Z,988.47
2022-08-14T07:00:22.154Z,988.43
2022-08-14T07:01:11.007Z,988.43
2022-08-14T07:02:13.242Z,988.44
2022-08-14T07:03:12.275Z,988.34
2022-08-14T07:04:23.183Z,988.31
2022-08-14T07:05:10.905Z,988.37
2022-08-14T07:06:21.490Z,988.31
2022-08-14T07:07:10.888Z,988.30
2022-08-14T07:08:10.876Z,988.32
2022-08-14T07:09:10.865Z,988.33
2022-08-14T07:10:16.790Z,988.31
2022-08-14T07:11:10.845Z,988.29
2022-08-14T07:12:55.175Z,988.27
2022-08-14T07:13:11.174Z,988.26
2022-08-14T07:14:10.815Z,988.27
2022-08-14T07:15:10.807Z,988.30
2022-08-14T07:16:10.800Z,988.25
2022-08-14T07:17:10.788Z,988.18
2022-08-14T07:18:10.777Z,988.14
2022-08-14T07:19:10.768Z,988.11
2022-08-14T07:20:10.759Z,988.08
2022-08-14T07:21:10.750Z,988.02
2022-08-14T07:22:20.242Z,988.03
2022-08-14T07:23:20.889Z,988.04
2022-08-14T07:24:21.808Z,988.01
2022-08-14T07:25:10.714Z,988.02
2022-08-14T07:26:10.705Z,987.97
2022-08-14T07:27:10.721Z,987.97
2022-08-14T07:28:12.989Z,988.00
2022-08-14T07:29:10.679Z,987.95
2022-08-14T07:30:33.979Z,987.97
2022-08-14T07:31:10.661Z,987.90
2022-08-14T07:32:10.662Z,987.91
2022-08-14T07:33:10.642Z,987.89
2022-08-14T07:34:11.442Z,987.91
2022-08-14T07:35:10.627Z,987.89
2022-08-14T07:36:26.652Z,987.89
2022-08-14T07:37:10.613Z,987.92
2022-08-14T07:38:10.602Z,987.86
2022-08-14T07:39:13.206Z,987.87
2022-08-14T07:40:10.635Z,987.85
2022-08-14T07:41:14.406Z,987.90
2022-08-14T07:42:10.570Z,987.85
2022-08-14T07:43:14.389Z,987.89
2022-08-14T07:44:32.226Z,987.83
2022-08-14T07:45:10.543Z,987.88
2022-08-14T07:46:10.537Z,987.84
2022-08-14T07:47:10.527Z,987.87
2022-08-14T07:48:14.811Z,987.89
2022-08-14T07:49:10.551Z,987.89
2022-08-14T07:50:10.505Z,987.93
2022-08-14T07:51:10.713Z,987.93
2022-08-14T07:52:10.491Z,987.95
2022-08-14T07:53:10.541Z,987.94
2022-08-14T07:54:11.552Z,987.96
2022-08-14T07:55:10.468Z,987.96
2022-08-14T07:56:21.899Z,987.95
2022-08-14T07:57:12.613Z,987.98
2022-08-14T07:58:33.824Z,988.02
2022-08-14T07:59:10.439Z,987.98
2022-08-14T08:00:10.433Z,987.99
2022-08-14T08:01:10.425Z,987.95
2022-08-14T08:02:20.357Z,987.96
2022-08-14T08:04:16.582Z,988.00
2022-08-14T08:05:15.911Z,988.03
2022-08-14T08:07:21.329Z,988.02
2022-08-14T08:08:27.249Z,988.05
2022-08-14T08:10:46.407Z,988.05
2022-08-14T08:11:26.784Z,988.07
2022-08-14T08:12:28.113Z,988.06
2022-08-14T08:13:28.701Z,988.08
2022-08-14T08:14:26.880Z,988.06
2022-08-14T08:15:26.751Z,988.08
2022-08-14T08:16:26.745Z,988.11
2022-08-14T08:17:26.750Z,988.08
2022-08-14T08:18:27.801Z,988.16
2022-08-14T08:19:26.755Z,988.08
2022-08-14T08:20:27.121Z,988.16
2022-08-14T08:21:27.118Z,988.06
2022-08-14T08:22:27.375Z,988.10
2022-08-14T08:23:28.255Z,988.06
2022-08-14T08:24:26.708Z,988.03
2022-08-14T08:25:26.703Z,988.02
2022-08-14T08:26:26.700Z,988.05
2022-08-14T08:27:26.692Z,988.01
2022-08-14T08:28:26.688Z,988.00
2022-08-14T08:29:29.303Z,987.96
2022-08-14T08:30:27.094Z,987.97
2022-08-14T08:31:32.888Z,987.95
2022-08-14T08:32:29.873Z,987.96
2022-08-14T08:33:26.670Z,987.96
2022-08-14T08:34:26.663Z,987.96
2022-08-14T08:35:32.948Z,987.96
2022-08-14T08:36:29.908Z,987.98
2022-08-14T08:37:26.655Z,987.99
2022-08-14T08:39:17.341Z,988.00
2022-08-14T08:39:42.215Z,987.99
2022-08-14T08:40:30.983Z,988.02
2022-08-14T08:41:26.745Z,988.00
2022-08-14T08:42:31.147Z,987.93
2022-08-14T08:43:26.640Z,987.95
2022-08-14T08:44:32.678Z,987.91
2022-08-14T08:45:27.815Z,987.89
2022-08-14T08:46:26.620Z,987.85
2022-08-14T08:47:26.620Z,987.84
2022-08-14T08:48:31.863Z,987.83
2022-08-14T08:49:26.614Z,987.81
2022-08-14T08:50:31.780Z,987.75
2022-08-14T08:51:30.970Z,987.79
2022-08-14T08:52:30.989Z,987.79
2022-08-14T08:53:26.605Z,987.84
2022-08-14T08:54:31.042Z,987.79
2022-08-14T08:55:26.605Z,987.78
2022-08-14T08:56:30.354Z,987.76
2022-08-14T08:57:26.596Z,987.77
2022-08-14T08:58:26.598Z,987.78
2022-08-14T08:59:27.062Z,987.80
2022-08-14T09:00:26.586Z,987.83
2022-08-14T09:01:26.620Z,987.86
2022-08-14T09:02:27.686Z,987.89
2022-08-14T09:03:27.569Z,987.89
2022-08-14T09:04:26.589Z,987.86
2022-08-14T09:05:26.577Z,987.87
2022-08-14T09:07:09.096Z,987.86
2022-08-14T09:07:26.820Z,987.82
2022-08-14T09:08:32.818Z,987.83
2022-08-14T09:09:26.570Z,987.86
2022-08-14T09:10:27.345Z,987.83
2022-08-14T09:11:26.564Z,987.83
2022-08-14T09:12:36.084Z,987.76
2022-08-14T09:13:26.563Z,987.71
2022-08-14T09:14:26.562Z,987.75
2022-08-14T09:15:26.559Z,987.77
2022-08-14T09:16:26.559Z,987.78
2022-08-14T09:17:26.605Z,987.77
2022-08-14T09:18:26.552Z,987.77
2022-08-14T09:19:26.581Z,987.74
2022-08-14T09:20:30.603Z,987.71
2022-08-14T09:21:31.699Z,987.68
2022-08-14T09:22:43.299Z,987.65
2022-08-14T09:23:27.437Z,987.64
2022-08-14T09:24:36.284Z,987.57
2022-08-14T09:26:01.371Z,987.61
2022-08-14T09:26:28.594Z,987.60
2022-08-14T09:27:26.543Z,987.65
2022-08-14T09:28:26.540Z,987.57
2022-08-14T09:29:28.817Z,987.61
2022-08-14T09:30:32.936Z,987.59
2022-08-14T09:31:26.537Z,987.60
2022-08-14T09:32:58.098Z,987.68
2022-08-14T09:33:26.571Z,987.61
2022-08-14T09:34:27.845Z,987.59
2022-08-14T09:35:27.743Z,987.59
2022-08-14T09:36:26.552Z,987.52
2022-08-14T09:37:26.561Z,987.53
2022-08-14T09:38:27.430Z,987.51
2022-08-14T09:39:26.569Z,987.46
2022-08-14T09:40:26.542Z,987.48
2022-08-14T09:41:26.534Z,987.44
2022-08-14T09:42:33.233Z,987.44
2022-08-14T09:43:26.534Z,987.42
2022-08-14T09:44:26.528Z,987.41
2022-08-14T09:45:26.527Z,987.48
2022-08-14T09:46:26.525Z,987.44
2022-08-14T09:47:26.525Z,987.40
2022-08-14T09:48:30.022Z,987.41
2022-08-14T09:49:26.606Z,987.40
2022-08-14T09:50:26.911Z,987.41
2022-08-14T09:51:26.521Z,987.40
2022-08-14T09:52:34.252Z,987.40
2022-08-14T09:54:12.773Z,987.33
2022-08-14T09:54:26.520Z,987.35
2022-08-14T09:55:27.824Z,987.26
2022-08-14T09:56:30.871Z,987.20
2022-08-14T09:57:27.678Z,987.22
2022-08-14T09:58:26.551Z,987.22
2022-08-14T09:59:26.524Z,987.21
2022-08-14T10:00:29.266Z,987.18
2022-08-14T10:01:26.518Z,987.24
2022-08-14T10:02:28.412Z,987.25
2022-08-14T10:03:26.517Z,987.17
2022-08-14T10:04:34.769Z,987.16
2022-08-14T10:05:26.526Z,987.19
2022-08-14T10:06:28.259Z,987.20
2022-08-14T10:07:26.514Z,987.21
2022-08-14T10:08:26.858Z,987.15
2022-08-14T10:09:26.521Z,987.19
2022-08-14T10:10:26.517Z,987.24
2022-08-14T10:11:35.100Z,987.16
2022-08-14T10:12:29.153Z,987.19
2022-08-14T10:13:26.717Z,987.22
2022-08-14T10:14:34.995Z,987.19
2022-08-14T10:15:27.802Z,987.18
2022-08-14T10:16:32.138Z,987.13
2022-08-14T10:17:26.518Z,987.13
2022-08-14T10:18:26.518Z,987.10
2022-08-14T10:19:26.520Z,987.07
2022-08-14T10:20:40.281Z,987.01
2022-08-14T10:21:26.516Z,986.95
2022-08-14T10:23:14.877Z,986.98
2022-08-14T10:23:26.724Z,987.00
2022-08-14T10:24:37.019Z,986.94
2022-08-14T10:25:26.522Z,986.91
2022-08-14T10:26:28.249Z,986.87
2022-08-14T10:27:27.092Z,986.87
2022-08-14T10:28:51.499Z,986.90
2022-08-14T10:29:26.602Z,986.95
2022-08-14T10:30:26.520Z,986.98
2022-08-14T10:31:26.734Z,986.98
2022-08-14T10:32:28.250Z,987.06
2022-08-14T10:33:26.526Z,986.98
2022-08-14T10:34:33.279Z,987.05
2022-08-14T10:35:31.801Z,986.97
2022-08-14T10:36:34.803Z,986.95
2022-08-14T10:37:27.765Z,986.90
2022-08-14T10:38:26.521Z,986.79
2022-08-14T10:39:26.570Z,986.87
2022-08-14T10:40:44.045Z,986.88
2022-08-14T10:41:31.863Z,986.91
2022-08-14T10:42:26.545Z,986.91
2022-08-14T10:43:26.661Z,986.91
2022-08-14T10:44:29.870Z,986.87
2022-08-14T10:45:26.537Z,986.90
2022-08-14T10:47:41.288Z,986.92
2022-08-14T10:47:41.342Z,986.82
2022-08-14T10:48:36.442Z,986.90
2022-08-14T10:49:26.636Z,986.78
2022-08-14T10:50:26.528Z,986.84
2022-08-14T10:51:26.527Z,986.82
2022-08-14T10:52:26.528Z,986.82
2022-08-14T10:53:26.529Z,986.74
2022-08-14T10:54:39.763Z,986.71
2022-08-14T10:55:26.528Z,986.71
2022-08-14T10:56:33.796Z,986.71
2022-08-14T10:57:26.534Z,986.72
2022-08-14T10:58:26.534Z,986.74
2022-08-14T10:59:36.106Z,986.79
2022-08-14T11:00:30.267Z,986.72
2022-08-14T11:01:26.580Z,986.75
2022-08-14T11:02:44.876Z,986.80
2022-08-14T11:03:55.350Z,986.73
2022-08-14T11:04:27.669Z,986.76
2022-08-14T11:05:26.543Z,986.69
2022-08-14T11:06:27.300Z,986.70
2022-08-14T11:07:26.543Z,986.62
2022-08-14T11:08:26.543Z,986.57
2022-08-14T11:09:31.811Z,986.56
2022-08-14T11:10:26.545Z,986.58
2022-08-14T11:11:26.545Z,986.56
2022-08-14T11:12:34.926Z,986.57
2022-08-14T11:13:26.549Z,986.50
2022-08-14T11:14:26.719Z,986.48
2022-08-14T11:15:26.546Z,986.46
2022-08-14T11:16:26.739Z,986.44
2022-08-14T11:17:26.547Z,986.35
2022-08-14T11:18:32.159Z,986.39
2022-08-14T11:19:26.554Z,986.32
2022-08-14T11:20:26.550Z,986.39
2022-08-14T11:21:26.596Z,986.31
2022-08-14T11:22:57.037Z,986.32
2022-08-14T11:23:26.551Z,986.37
2022-08-14T11:24:55.323Z,986.35
2022-08-14T11:25:34.154Z,986.39
2022-08-14T11:26:26.552Z,986.38
2022-08-14T11:27:33.354Z,986.27
2022-08-14T11:28:47.356Z,986.32
2022-08-14T11:29:26.893Z,986.26
2022-08-14T11:30:51.621Z,986.23
2022-08-14T11:31:26.554Z,986.24
2022-08-14T11:32:26.557Z,986.20
2022-08-14T11:33:26.558Z,986.11
2022-08-14T11:34:30.299Z,986.09
2022-08-14T11:35:26.558Z,986.09
2022-08-14T11:36:35.267Z,986.01
2022-08-14T11:37:39.404Z,986.02
2022-08-14T11:38:26.566Z,985.98
2022-08-14T11:39:34.427Z,986.00
2022-08-14T11:40:29.261Z,985.97
2022-08-14T11:41:26.573Z,985.95
2022-08-14T11:42:57.236Z,985.87
2022-08-14T11:43:29.671Z,985.90
2022-08-14T11:44:45.342Z,985.88
2022-08-14T11:45:26.573Z,985.91
2022-08-14T11:46:30.304Z,985.87
2022-08-14T11:47:26.579Z,985.89
2022-08-14T11:49:04.126Z,985.92
2022-08-14T11:49:26.584Z,985.94
2022-08-14T11:50:37.357Z,985.92
2022-08-14T11:51:30.474Z,985.99
2022-08-14T11:52:26.592Z,985.90
2022-08-14T11:53:26.592Z,985.86
2022-08-14T11:54:34.783Z,985.86
2022-08-14T11:55:26.594Z,985.86
2022-08-14T11:56:29.671Z,985.91
2022-08-14T11:57:26.597Z,985.88
2022-08-14T11:58:26.601Z,985.95
2022-08-14T11:59:32.839Z,985.91
2022-08-14T12:00:31.751Z,985.98
2022-08-14T12:01:26.615Z,985.88
2022-08-14T12:02:48.003Z,985.89
2022-08-14T12:03:37.805Z,985.81
2022-08-14T12:04:33.418Z,985.85
2022-08-14T12:05:26.617Z,985.86
2022-08-14T12:06:29.576Z,985.79
2022-08-14T12:07:26.621Z,985.84
2022-08-14T12:08:30.216Z,985.82
2022-08-14T12:09:26.626Z,985.75
2022-08-14T12:10:42.426Z,985.86
2022-08-14T12:11:26.629Z,985.78
2022-08-14T12:12:36.261Z,985.77
2022-08-14T12:13:27.412Z,985.76
2022-08-14T12:14:30.670Z,985.79
2022-08-14T12:15:26.642Z,985.79
2022-08-14T12:16:26.661Z,985.76
2022-08-14T12:17:26.671Z,985.78
2022-08-14T12:18:26.654Z,985.76
2022-08-14T12:19:26.713Z,985.75
2022-08-14T12:20:30.216Z,985.78
2022-08-14T12:21:32.134Z,985.75
2022-08-14T12:22:29.882Z,985.77
2022-08-14T12:23:26.667Z,985.78
2022-08-14T12:24:36.097Z,985.77
2022-08-14T12:25:26.670Z,985.77
2022-08-14T12:26:39.262Z,985.79
2022-08-14T12:27:26.671Z,985.74
2022-08-14T12:28:33.934Z,985.78
2022-08-14T12:29:26.685Z,985.73
2022-08-14T12:30:26.849Z,985.70
2022-08-14T12:31:26.715Z,985.68